Time;durP1;ratioP1;P1;durP2;ratioP2;P2;SDS_P1;SDS_P2;PMS_P1;PMS_P2;Temp;Humidity;BMP_temperature;BMP_pressure;BME280_temperature;BME280_humidity;BME280_pressure;Samples;Min_cycle;Max_cycle;Signal;HPM_P1;HPM_P2
2023/05/12 00:01:06;;;;;;;20.92;10.98;;;12.00;99.90;;;;;;5070084;28;20515;-59
2023/05/12 00:03:32;;;;;;;18.20;10.68;;;12.00;99.90;;;;;;5069985;28;20064;-61
2023/05/12 00:06:02;;;;;;;16.65;9.85;;;12.10;99.90;;;;;;5069680;28;20484;-59
2023/05/12 00:08:28;;;;;;;17.90;12.95;;;12.00;99.90;;;;;;5069931;28;20048;-61
2023/05/12 00:10:54;;;;;;;16.63;9.98;;;12.00;99.90;;;;;;5069760;28;20044;-61
2023/05/12 00:13:22;;;;;;;18.20;10.48;;;12.10;99.90;;;;;;5069932;28;20400;-61
2023/05/12 00:15:48;;;;;;;20.00;10.85;;;12.00;99.90;;;;;;5069786;28;20040;-59
2023/05/12 00:18:14;;;;;;;18.45;10.90;;;12.00;99.90;;;;;;5069495;28;20115;-60
2023/05/12 00:20:40;;;;;;;19.88;11.73;;;12.00;99.90;;;;;;5069567;28;20206;-60
2023/05/12 00:23:06;;;;;;;19.77;11.30;;;12.00;99.90;;;;;;5069681;28;20124;-61
2023/05/12 00:25:32;;;;;;;19.00;11.40;;;12.00;99.90;;;;;;5069843;28;20037;-60
2023/05/12 00:27:58;;;;;;;18.98;11.30;;;12.00;99.90;;;;;;5069933;28;20043;-58
2023/05/12 00:30:23;;;;;;;18.80;10.63;;;12.00;99.90;;;;;;5069439;28;20036;-59
2023/05/12 00:32:49;;;;;;;17.80;11.18;;;12.00;99.90;;;;;;5069587;28;20036;-62
2023/05/12 00:35:16;;;;;;;22.10;11.68;;;12.00;99.90;;;;;;5069910;28;20037;-60
2023/05/12 00:37:41;;;;;;;17.38;11.50;;;12.00;99.90;;;;;;5069539;28;20102;-59
2023/05/12 00:40:08;;;;;;;18.70;11.40;;;12.00;99.90;;;;;;5051974;28;20422;-62
2023/05/12 00:42:34;;;;;;;20.10;12.27;;;12.00;99.90;;;;;;5069490;28;20094;-62
2023/05/12 00:45:01;;;;;;;20.88;12.30;;;12.00;99.90;;;;;;5069742;28;20040;-60
2023/05/12 00:47:26;;;;;;;18.13;11.50;;;12.00;99.90;;;;;;5068993;28;20123;-60
2023/05/12 00:49:53;;;;;;;17.23;10.80;;;12.00;99.90;;;;;;5069761;28;20123;-60
2023/05/12 00:52:19;;;;;;;19.63;11.07;;;12.00;99.90;;;;;;5069565;28;20571;-63
2023/05/12 00:54:46;;;;;;;18.55;10.68;;;12.00;99.90;;;;;;5069402;28;20063;-59
2023/05/12 00:57:13;;;;;;;17.95;10.30;;;11.90;99.90;;;;;;5069485;28;20047;-60
2023/05/12 00:59:38;;;;;;;15.10;10.18;;;12.00;99.90;;;;;;5069381;28;20119;-61
2023/05/12 01:02:04;;;;;;;15.88;9.70;;;12.00;99.90;;;;;;5065153;28;20115;-61
2023/05/12 01:04:31;;;;;;;14.48;8.88;;;12.00;99.90;;;;;;5073492;28;20035;-59
2023/05/12 01:07:14;;;;;;;16.17;9.35;;;11.90;99.90;;;;;;5073570;28;20036;-60
2023/05/12 01:09:40;;;;;;;15.45;9.30;;;12.00;99.90;;;;;;5073577;28;20404;-60
2023/05/12 01:12:06;;;;;;;16.60;9.43;;;12.00;99.90;;;;;;5073320;28;20047;-60
2023/05/12 01:14:33;;;;;;;14.85;8.57;;;12.00;99.90;;;;;;5072968;28;20507;-60
2023/05/12 01:17:02;;;;;;;13.95;9.07;;;11.90;99.90;;;;;;5073025;28;20087;-61
2023/05/12 01:19:46;;;;;;;14.65;11.02;;;11.90;99.90;;;;;;5072058;28;20113;-60
2023/05/12 01:22:12;;;;;;;14.07;10.95;;;11.90;99.90;;;;;;5073154;28;20090;-60
2023/05/12 01:24:45;;;;;;;17.77;8.90;;;12.00;99.90;;;;;;5073064;28;20044;-58
2023/05/12 01:27:12;;;;;;;14.68;9.48;;;11.90;99.90;;;;;;5072903;28;20036;-60
2023/05/12 01:29:38;;;;;;;15.82;9.50;;;12.00;99.90;;;;;;5072796;28;20037;-63
2023/05/12 01:32:04;;;;;;;14.80;10.88;;;11.90;99.90;;;;;;5072953;28;20037;-61
2023/05/12 01:34:32;;;;;;;15.48;9.65;;;12.00;99.90;;;;;;5072981;28;20055;-62
2023/05/12 01:36:58;;;;;;;17.80;10.75;;;12.00;99.90;;;;;;5072632;28;20040;-61
2023/05/12 01:39:24;;;;;;;17.42;10.30;;;11.90;99.90;;;;;;5072713;28;20036;-62
2023/05/12 01:41:49;;;;;;;19.48;11.35;;;12.00;99.90;;;;;;5072544;28;20116;-60
2023/05/12 01:44:15;;;;;;;21.77;11.68;;;11.90;99.90;;;;;;5072824;28;20952;-59
2023/05/12 01:46:41;;;;;;;24.10;12.30;;;12.00;99.90;;;;;;5072114;28;20507;-61
2023/05/12 01:49:06;;;;;;;21.98;12.13;;;12.00;99.90;;;;;;5072805;28;20036;-59
2023/05/12 01:51:32;;;;;;;24.42;13.50;;;11.90;99.90;;;;;;5072617;28;20135;-62
2023/05/12 01:53:58;;;;;;;23.30;13.65;;;12.00;99.90;;;;;;5072510;28;20115;-62
2023/05/12 01:56:23;;;;;;;31.42;15.25;;;12.00;99.90;;;;;;5072253;28;20044;-60
2023/05/12 01:58:49;;;;;;;31.23;16.40;;;12.00;99.90;;;;;;5073012;28;20047;-61
2023/05/12 02:01:15;;;;;;;32.90;17.90;;;12.00;99.90;;;;;;5072247;28;20036;-60
2023/05/12 02:03:40;;;;;;;36.80;18.08;;;12.10;99.90;;;;;;5072375;28;20044;-59
2023/05/12 02:06:06;;;;;;;37.80;22.88;;;12.10;99.90;;;;;;5072390;28;20415;-61
2023/05/12 02:08:32;;;;;;;41.72;19.77;;;12.10;99.90;;;;;;5054626;28;20071;-60
2023/05/12 02:11:05;;;;;;;43.20;21.17;;;12.00;99.90;;;;;;5072981;28;20044;-62
2023/05/12 02:13:31;;;;;;;43.60;21.05;;;12.10;99.90;;;;;;5071953;28;20145;-60
2023/05/12 02:15:57;;;;;;;47.88;23.23;;;12.10;99.90;;;;;;5072193;28;20127;-61
2023/05/12 02:18:22;;;;;;;45.10;22.80;;;12.00;99.90;;;;;;5071899;28;20039;-60
2023/05/12 02:20:48;;;;;;;49.05;23.00;;;12.10;99.90;;;;;;5071756;28;20051;-62
2023/05/12 02:23:14;;;;;;;49.83;23.88;;;12.10;99.90;;;;;;5071849;28;20518;-58
2023/05/12 02:25:40;;;;;;;56.53;26.80;;;12.10;99.90;;;;;;5071717;28;20040;-60
2023/05/12 02:28:09;;;;;;;61.10;26.60;;;12.10;99.90;;;;;;5072259;28;20040;-59
2023/05/12 02:30:35;;;;;;;61.30;27.30;;;12.20;99.90;;;;;;5072200;28;20106;-60
2023/05/12 02:33:04;;;;;;;65.38;29.42;;;12.20;99.90;;;;;;5071804;28;20056;-62
2023/05/12 02:35:30;;;;;;;64.05;29.30;;;12.20;99.90;;;;;;5072485;28;20036;-61
2023/05/12 02:37:56;;;;;;;69.25;29.20;;;12.10;99.90;;;;;;5072227;28;20040;-59
2023/05/12 02:40:22;;;;;;;68.20;29.13;;;12.10;99.90;;;;;;5071599;28;20040;-59
2023/05/12 02:42:48;;;;;;;61.78;28.55;;;12.20;99.90;;;;;;5071771;28;20060;-60
2023/05/12 02:45:14;;;;;;;73.40;32.03;;;12.30;99.90;;;;;;5071311;28;20047;-60
2023/05/12 02:47:39;;;;;;;71.28;30.95;;;12.20;99.90;;;;;;5071256;28;20040;-61
2023/05/12 02:50:05;;;;;;;70.95;30.45;;;12.20;99.90;;;;;;5071446;28;20113;-59
2023/05/12 02:52:31;;;;;;;71.93;31.50;;;12.30;99.90;;;;;;5071558;28;20128;-58
2023/05/12 02:54:57;;;;;;;78.57;33.35;;;12.20;99.90;;;;;;5071174;28;20559;-59
2023/05/12 02:57:23;;;;;;;66.78;31.13;;;12.20;99.90;;;;;;5071446;28;20044;-61
2023/05/12 02:59:48;;;;;;;74.38;32.47;;;12.30;99.90;;;;;;5071062;28;20033;-59
2023/05/12 03:02:14;;;;;;;83.28;34.13;;;12.20;99.90;;;;;;5053344;28;20451;-62
2023/05/12 03:04:40;;;;;;;86.35;33.53;;;12.30;99.90;;;;;;5070953;28;20420;-62
2023/05/12 03:07:06;;;;;;;79.68;32.85;;;12.30;99.90;;;;;;5071045;28;20043;-58
2023/05/12 03:09:31;;;;;;;76.15;33.95;;;12.30;99.90;;;;;;5071218;28;20036;-61
2023/05/12 03:11:57;;;;;;;72.65;32.10;;;12.20;99.90;;;;;;5071265;28;20799;-60
2023/05/12 03:14:25;;;;;;;78.40;33.67;;;12.20;99.90;;;;;;5053162;28;20249;-62
2023/05/12 03:16:50;;;;;;;77.03;34.15;;;12.40;99.90;;;;;;5070388;28;20040;-59
2023/05/12 03:19:16;;;;;;;78.85;33.53;;;12.30;99.90;;;;;;5071014;28;20047;-60
2023/05/12 03:21:42;;;;;;;71.38;32.50;;;12.40;99.90;;;;;;5070727;28;20135;-60
2023/05/12 03:24:07;;;;;;;84.93;35.22;;;12.30;99.90;;;;;;5069919;28;20138;-58
2023/05/12 03:26:33;;;;;;;78.70;34.20;;;12.30;99.90;;;;;;5070691;28;20040;-61
2023/05/12 03:28:59;;;;;;;74.00;33.25;;;12.40;99.90;;;;;;5071038;28;20040;-61
2023/05/12 03:31:24;;;;;;;74.13;33.47;;;12.30;99.90;;;;;;5070662;28;20044;-62
2023/05/12 03:33:50;;;;;;;79.38;35.00;;;12.30;99.90;;;;;;5070647;28;20041;-60
2023/05/12 03:36:16;;;;;;;79.40;35.25;;;12.30;99.90;;;;;;5070036;28;20539;-61
2023/05/12 03:38:41;;;;;;;80.20;36.15;;;12.30;99.90;;;;;;5052711;28;20044;-61
2023/05/12 03:41:07;;;;;;;82.00;35.60;;;12.30;99.90;;;;;;5070970;28;20316;-61
2023/05/12 03:43:33;;;;;;;76.07;33.72;;;12.40;99.90;;;;;;5070528;28;20091;-60
2023/05/12 03:45:59;;;;;;;79.03;35.63;;;12.40;99.90;;;;;;5070252;28;20048;-59
2023/05/12 03:48:25;;;;;;;80.32;35.03;;;12.30;99.90;;;;;;5062988;28;20032;-60
2023/05/12 03:50:50;;;;;;;84.97;35.47;;;12.40;99.90;;;;;;5052163;28;20472;-61
2023/05/12 03:53:16;;;;;;;80.65;35.53;;;12.40;99.90;;;;;;5070187;28;20051;-59
2023/05/12 03:55:42;;;;;;;79.00;35.08;;;12.50;99.90;;;;;;5069967;28;20178;-58
2023/05/12 03:58:07;;;;;;;83.22;35.47;;;12.30;99.90;;;;;;5070157;28;20115;-59
2023/05/12 04:00:33;;;;;;;82.43;35.38;;;12.40;99.90;;;;;;5070343;28;20116;-59
2023/05/12 04:02:59;;;;;;;82.65;35.65;;;12.30;99.90;;;;;;5070416;28;20558;-61
2023/05/12 04:05:25;;;;;;;95.32;35.83;;;12.30;99.90;;;;;;5070011;28;20039;-61
2023/05/12 04:07:51;;;;;;;81.30;35.55;;;12.30;99.90;;;;;;5069901;28;20040;-61
2023/05/12 04:10:17;;;;;;;87.70;36.20;;;12.50;99.90;;;;;;5070523;28;20036;-61
2023/05/12 04:12:42;;;;;;;86.38;34.50;;;12.50;99.90;;;;;;5069834;28;20097;-60
2023/05/12 04:15:08;;;;;;;89.70;35.38;;;12.50;99.90;;;;;;5070263;28;20040;-61
2023/05/12 04:17:34;;;;;;;87.55;36.95;;;12.60;99.90;;;;;;5069522;28;20040;-61
2023/05/12 04:20:00;;;;;;;80.05;36.05;;;12.50;99.90;;;;;;5069668;28;20464;-59
2023/05/12 04:22:26;;;;;;;89.68;37.97;;;12.50;99.90;;;;;;5069766;28;20044;-62
2023/05/12 04:24:51;;;;;;;92.55;36.85;;;12.50;99.90;;;;;;5070398;28;20042;-61
2023/05/12 04:27:17;;;;;;;92.95;36.42;;;12.60;99.90;;;;;;5069866;28;20040;-60
2023/05/12 04:29:43;;;;;;;94.57;38.53;;;12.60;99.90;;;;;;5069972;28;20408;-62
2023/05/12 04:32:08;;;;;;;92.25;37.15;;;12.40;99.90;;;;;;5069525;28;20119;-63
2023/05/12 04:34:34;;;;;;;86.43;35.88;;;12.50;99.90;;;;;;5069580;28;20044;-62
2023/05/12 04:37:00;;;;;;;96.03;38.88;;;12.50;99.90;;;;;;5069173;28;20044;-62
2023/05/12 04:39:27;;;;;;;84.15;36.22;;;12.60;99.90;;;;;;5069758;28;20472;-59
2023/05/12 04:41:52;;;;;;;86.65;36.17;;;12.60;99.90;;;;;;5069235;28;20056;-60
2023/05/12 04:44:18;;;;;;;94.85;39.22;;;12.50;99.90;;;;;;5069564;28;20036;-61
2023/05/12 04:46:44;;;;;;;86.85;37.47;;;12.50;99.90;;;;;;5069386;28;20044;-60
2023/05/12 04:49:10;;;;;;;89.70;37.42;;;12.60;99.90;;;;;;5069678;28;20472;-62
2023/05/12 04:51:41;;;;;;;92.05;36.80;;;12.70;99.90;;;;;;5069390;28;20128;-59
2023/05/12 04:54:11;;;;;;;80.53;35.00;;;12.80;99.90;;;;;;5069693;28;20558;-59
2023/05/12 04:56:36;;;;;;;70.97;32.95;;;12.70;99.90;;;;;;5069538;28;20144;-60
2023/05/12 04:59:02;;;;;;;70.88;33.95;;;12.80;99.90;;;;;;5069395;28;20115;-61
2023/05/12 05:01:28;;;;;;;70.90;34.55;;;12.70;99.90;;;;;;5051338;28;20043;-63
2023/05/12 05:03:54;;;;;;;67.60;34.80;;;12.70;99.90;;;;;;5067681;28;20044;-58
2023/05/12 05:06:19;;;;;;;68.57;32.97;;;12.80;99.90;;;;;;5068990;28;20037;-59
2023/05/12 05:08:45;;;;;;;67.22;34.17;;;12.90;99.90;;;;;;5068747;28;20396;-62
2023/05/12 05:11:11;;;;;;;67.80;33.67;;;12.80;99.90;;;;;;5069514;28;20120;-60
2023/05/12 05:13:36;;;;;;;71.90;34.28;;;12.90;99.90;;;;;;5069562;28;20037;-60
2023/05/12 05:16:02;;;;;;;76.55;34.40;;;12.80;99.90;;;;;;5069116;28;20037;-63
2023/05/12 05:18:28;;;;;;;69.75;34.90;;;12.90;99.90;;;;;;5068830;28;20040;-62
2023/05/12 05:20:54;;;;;;;67.13;33.80;;;12.90;99.90;;;;;;5063744;28;20088;-58
2023/05/12 05:23:20;;;;;;;65.63;34.88;;;12.90;99.90;;;;;;5055680;28;20091;-59
2023/05/12 05:25:45;;;;;;;66.13;33.47;;;13.00;99.90;;;;;;5031218;28;20077;-59
2023/05/12 05:28:11;;;;;;;66.93;35.20;;;13.10;99.90;;;;;;5031643;28;20048;-61
2023/05/12 05:30:37;;;;;;;71.05;35.13;;;13.00;99.90;;;;;;5049318;28;20040;-59
2023/05/12 05:33:02;;;;;;;65.82;38.25;;;13.10;99.90;;;;;;5055422;28;20049;-61
2023/05/12 05:35:29;;;;;;;67.00;34.55;;;13.20;99.90;;;;;;5049276;28;20045;-62
2023/05/12 05:37:56;;;;;;;61.90;34.03;;;13.10;99.90;;;;;;5049971;28;20404;-63
2023/05/12 05:40:22;;;;;;;62.47;32.47;;;13.10;99.90;;;;;;5049642;28;20116;-60
2023/05/12 05:42:47;;;;;;;63.63;33.15;;;13.20;99.90;;;;;;5049243;28;20120;-60
2023/05/12 05:45:13;;;;;;;57.67;32.47;;;13.20;99.90;;;;;;5048969;28;20191;-61
2023/05/12 05:47:39;;;;;;;66.78;35.13;;;13.20;99.90;;;;;;5049129;28;20055;-60
2023/05/12 05:50:05;;;;;;;60.08;32.65;;;13.40;99.90;;;;;;5052484;28;20040;-61
2023/05/12 05:52:31;;;;;;;66.88;33.80;;;13.40;99.90;;;;;;5052801;28;20055;-60
2023/05/12 05:54:57;;;;;;;56.63;32.08;;;13.40;99.90;;;;;;5052622;28;20110;-61
2023/05/12 05:57:22;;;;;;;61.20;33.45;;;13.30;99.90;;;;;;5052462;28;20091;-62
2023/05/12 05:59:48;;;;;;;57.28;33.03;;;13.30;99.90;;;;;;5052637;28;20037;-58
2023/05/12 06:02:14;;;;;;;58.70;32.90;;;13.50;99.90;;;;;;5052539;28;20056;-62
2023/05/12 06:04:39;;;;;;;65.35;34.08;;;13.40;99.90;;;;;;5052098;28;20043;-61
2023/05/12 06:07:05;;;;;;;57.83;32.20;;;13.50;99.90;;;;;;5052360;28;20044;-61
2023/05/12 06:09:31;;;;;;;59.67;33.30;;;13.60;99.90;;;;;;5051869;28;20044;-61
2023/05/12 06:11:57;;;;;;;58.17;33.15;;;13.60;99.90;;;;;;5052311;28;20128;-61
2023/05/12 06:14:22;;;;;;;60.22;34.42;;;13.50;99.90;;;;;;5034092;28;20392;-60
2023/05/12 06:16:48;;;;;;;58.58;32.92;;;13.50;99.90;;;;;;5051744;28;20033;-59
2023/05/12 06:19:14;;;;;;;58.75;33.33;;;13.50;99.90;;;;;;5051930;28;20098;-59
2023/05/12 06:21:40;;;;;;;55.88;31.90;;;13.60;99.90;;;;;;5064763;28;20075;-62
2023/05/12 06:24:06;;;;;;;56.53;33.17;;;13.70;99.90;;;;;;5072212;28;20080;-60
2023/05/12 06:26:31;;;;;;;52.40;35.40;;;13.60;99.90;;;;;;5071932;28;20564;-61
2023/05/12 06:28:57;;;;;;;54.15;31.08;;;13.80;99.90;;;;;;5070964;28;20040;-59
2023/05/12 06:31:23;;;;;;;54.55;32.05;;;13.80;99.90;;;;;;5071813;28;20032;-61
2023/05/12 06:33:48;;;;;;;58.15;33.75;;;13.70;99.90;;;;;;5071854;28;20068;-60
2023/05/12 06:36:14;;;;;;;57.40;32.65;;;13.70;99.90;;;;;;5071673;28;20072;-60
2023/05/12 06:38:40;;;;;;;53.25;32.33;;;13.80;99.90;;;;;;5072027;28;20419;-61
2023/05/12 06:41:05;;;;;;;56.63;33.10;;;13.90;99.90;;;;;;5053808;28;20392;-60
2023/05/12 06:43:31;;;;;;;51.28;35.40;;;13.90;99.90;;;;;;5071556;28;20048;-60
2023/05/12 06:45:57;;;;;;;55.97;37.00;;;14.00;99.90;;;;;;5071480;28;20633;-59
2023/05/12 06:48:23;;;;;;;54.33;33.42;;;14.00;99.90;;;;;;5069609;28;20039;-62
2023/05/12 06:50:48;;;;;;;56.63;34.97;;;14.10;99.90;;;;;;5071552;28;20120;-60
2023/05/12 06:53:14;;;;;;;56.95;33.88;;;14.10;99.90;;;;;;5053579;28;20865;-60
2023/05/12 06:55:42;;;;;;;53.30;35.97;;;14.10;99.90;;;;;;5070115;28;20044;-60
2023/05/12 06:58:07;;;;;;;56.38;32.33;;;14.00;99.90;;;;;;5071318;28;20041;-61
2023/05/12 07:00:33;;;;;;;50.55;35.63;;;14.00;99.90;;;;;;5065635;28;20040;-60
2023/05/12 07:02:59;;;;;;;52.88;30.27;;;14.20;99.90;;;;;;5062546;28;20025;-60
2023/05/12 07:05:24;;;;;;;49.30;34.47;;;14.20;99.90;;;;;;5062432;28;20037;-60
2023/05/12 07:07:50;;;;;;;47.55;30.55;;;14.20;99.90;;;;;;5061655;28;20036;-62
2023/05/12 07:10:16;;;;;;;51.17;31.88;;;14.30;99.90;;;;;;5061750;28;20487;-63
2023/05/12 07:12:42;;;;;;;44.67;32.35;;;14.40;99.90;;;;;;5063716;28;20847;-61
2023/05/12 07:15:08;;;;;;;42.95;31.55;;;14.30;99.90;;;;;;5065003;28;20532;-62
2023/05/12 07:17:34;;;;;;;42.88;32.08;;;14.40;99.90;;;;;;5061314;28;20125;-61
2023/05/12 07:20:00;;;;;;;41.90;30.30;;;14.50;99.90;;;;;;5063614;28;20575;-58
2023/05/12 07:22:26;;;;;;;40.70;29.73;;;14.50;99.90;;;;;;5063821;28;20119;-61
2023/05/12 07:24:52;;;;;;;43.03;29.00;;;14.50;99.90;;;;;;5065037;28;20479;-61
2023/05/12 07:27:18;;;;;;;40.63;29.50;;;14.50;99.90;;;;;;5063689;28;20039;-60
2023/05/12 07:29:43;;;;;;;39.72;29.13;;;14.50;99.90;;;;;;5062020;28;20187;-61
2023/05/12 07:32:09;;;;;;;41.80;26.88;;;14.60;99.90;;;;;;5065012;28;20134;-61
2023/05/12 07:34:34;;;;;;;39.42;29.80;;;14.60;99.90;;;;;;5061919;28;20154;-59
2023/05/12 07:37:01;;;;;;;42.83;31.02;;;14.60;99.90;;;;;;5063218;28;20696;-61
2023/05/12 07:39:28;;;;;;;42.35;27.67;;;14.70;99.90;;;;;;5065748;28;20047;-60
2023/05/12 07:41:54;;;;;;;38.70;28.30;;;14.80;99.90;;;;;;5064786;28;20033;-61
2023/05/12 07:44:20;;;;;;;40.22;30.00;;;15.00;99.90;;;;;;5046659;28;20044;-60
2023/05/12 07:46:45;;;;;;;38.47;29.13;;;15.10;99.90;;;;;;5062449;28;20068;-62
2023/05/12 07:49:11;;;;;;;39.72;28.67;;;15.10;99.90;;;;;;5061224;28;20036;-60
2023/05/12 07:51:38;;;;;;;37.33;27.55;;;15.20;99.90;;;;;;5062740;28;20119;-59
2023/05/12 07:54:05;;;;;;;36.63;27.63;;;15.20;99.90;;;;;;5061018;28;20051;-61
2023/05/12 07:56:30;;;;;;;39.28;28.20;;;15.20;99.90;;;;;;5059502;28;20036;-61
2023/05/12 07:58:56;;;;;;;34.03;25.95;;;15.40;99.90;;;;;;5066572;28;20039;-58
2023/05/12 08:01:22;;;;;;;35.80;25.52;;;15.40;99.90;;;;;;5062368;28;20032;-60
2023/05/12 08:03:50;;;;;;;35.25;26.67;;;15.40;99.90;;;;;;5027295;28;20029;-62
2023/05/12 08:06:16;;;;;;;37.42;28.00;;;15.50;99.90;;;;;;5063748;28;20041;-62
2023/05/12 08:08:42;;;;;;;34.50;26.42;;;15.50;99.90;;;;;;5065763;28;20044;-61
2023/05/12 08:11:08;;;;;;;36.05;26.70;;;15.60;99.90;;;;;;5049158;28;20052;-59
2023/05/12 08:13:36;;;;;;;36.72;27.15;;;15.70;99.90;;;;;;5065919;28;20148;-61
2023/05/12 08:16:02;;;;;;;38.92;26.38;;;15.80;99.90;;;;;;5065731;28;20266;-62
2023/05/12 08:18:28;;;;;;;33.50;25.95;;;15.90;99.90;;;;;;5063910;28;20028;-60
2023/05/12 08:20:54;;;;;;;36.03;26.58;;;16.00;99.90;;;;;;5054614;28;20412;-63
2023/05/12 08:23:19;;;;;;;36.10;25.85;;;16.00;99.90;;;;;;5043974;28;20029;-59
2023/05/12 08:25:47;;;;;;;31.88;25.20;;;16.00;99.90;;;;;;5044389;28;20100;-61
2023/05/12 08:28:13;;;;;;;35.08;25.75;;;15.90;99.90;;;;;;5045250;28;20507;-59
2023/05/12 08:30:43;;;;;;;32.80;24.83;;;15.90;99.90;;;;;;5044477;28;20114;-62
2023/05/12 08:33:10;;;;;;;31.70;24.58;;;15.90;99.90;;;;;;5044526;28;20045;-62
2023/05/12 08:35:36;;;;;;;33.65;25.17;;;15.90;99.90;;;;;;5044134;28;20037;-62
2023/05/12 08:38:01;;;;;;;33.33;25.15;;;15.90;99.90;;;;;;5044215;28;20381;-61
2023/05/12 08:40:30;;;;;;;29.60;24.00;;;16.00;99.90;;;;;;5046396;28;20037;-62
2023/05/12 08:43:28;;;;;;;33.97;24.45;;;16.00;99.90;;;;;;5046676;28;20040;-59
2023/05/12 08:45:57;;;;;;;32.08;24.73;;;16.10;99.90;;;;;;5039345;28;20041;-59
2023/05/12 08:48:28;;;;;;;31.98;24.35;;;16.20;99.90;;;;;;5043496;28;20041;-63
2023/05/12 08:50:54;;;;;;;31.77;24.17;;;16.20;99.90;;;;;;5044816;28;20079;-63
2023/05/12 08:53:21;;;;;;;31.42;24.90;;;16.20;99.90;;;;;;5048304;28;20025;-64
2023/05/12 08:55:48;;;;;;;30.70;23.38;;;16.30;99.90;;;;;;5051167;28;20049;-61
2023/05/12 08:58:14;;;;;;;32.03;23.80;;;16.30;99.90;;;;;;5043727;28;20098;-59
2023/05/12 09:00:40;;;;;;;29.92;23.50;;;16.50;99.90;;;;;;5043674;28;20037;-62
2023/05/12 09:03:06;;;;;;;29.10;23.63;;;16.60;99.90;;;;;;5044721;28;20040;-62
2023/05/12 09:05:33;;;;;;;28.65;22.48;;;16.70;99.90;;;;;;5044054;28;20068;-60
2023/05/12 09:08:00;;;;;;;32.95;23.55;;;16.80;99.90;;;;;;5042458;28;20484;-61
2023/05/12 09:10:27;;;;;;;31.45;23.88;;;16.90;99.90;;;;;;5043653;28;20033;-61
2023/05/12 09:13:02;;;;;;;28.77;22.48;;;16.90;99.90;;;;;;5024967;28;20037;-63
2023/05/12 09:15:35;;;;;;;27.63;21.38;;;17.00;99.90;;;;;;5046217;28;20029;-60
2023/05/12 09:18:01;;;;;;;28.70;22.45;;;17.10;99.90;;;;;;5045913;28;20534;-59
2023/05/12 09:20:26;;;;;;;28.90;23.45;;;17.10;99.90;;;;;;5048072;28;20127;-58
2023/05/12 09:22:55;;;;;;;28.30;22.45;;;17.20;99.90;;;;;;5061644;28;20578;-64
2023/05/12 09:25:20;;;;;;;27.10;21.77;;;17.30;99.90;;;;;;5067473;28;20123;-60
2023/05/12 09:27:48;;;;;;;25.48;21.08;;;17.40;99.90;;;;;;5076780;28;20163;-63
2023/05/12 09:30:15;;;;;;;25.75;20.80;;;17.60;99.90;;;;;;5063093;28;20037;-60
2023/05/12 09:32:41;;;;;;;26.05;20.70;;;17.70;99.90;;;;;;5065446;28;20036;-60
2023/05/12 09:35:10;;;;;;;23.83;18.52;;;17.80;99.90;;;;;;5066015;28;20032;-64
2023/05/12 09:37:36;;;;;;;22.42;18.83;;;17.90;99.90;;;;;;5063996;28;20040;-65
2023/05/12 09:40:07;;;;;;;25.17;19.55;;;18.00;99.90;;;;;;5067803;28;20028;-61
2023/05/12 09:42:34;;;;;;;24.13;18.88;;;18.00;99.90;;;;;;5064515;28;20123;-63
2023/05/12 09:45:10;;;;;;;25.00;18.95;;;18.10;99.90;;;;;;5065025;28;20356;-61
2023/05/12 09:47:37;;;;;;;21.45;17.35;;;18.10;99.90;;;;;;5064450;28;20044;-62
2023/05/12 09:50:05;;;;;;;22.70;17.45;;;18.10;99.90;;;;;;5069446;28;20036;-62
2023/05/12 09:52:35;;;;;;;21.38;18.38;;;18.10;99.90;;;;;;5070276;28;20105;-61
2023/05/12 09:55:12;;;;;;;22.75;18.15;;;18.20;99.90;;;;;;5070704;28;20236;-60
2023/05/12 09:57:42;;;;;;;22.85;17.98;;;18.30;99.90;;;;;;5054628;28;20045;-60
2023/05/12 10:00:13;;;;;;;24.25;19.15;;;18.40;99.90;;;;;;5071220;28;20047;-61
2023/05/12 10:02:43;;;;;;;22.45;18.50;;;18.60;99.90;;;;;;5072301;28;20049;-59
2023/05/12 10:05:17;;;;;;;23.05;18.30;;;18.80;99.90;;;;;;5072792;28;20468;-61
2023/05/12 10:07:53;;;;;;;22.27;18.27;;;19.00;99.90;;;;;;5072145;28;20048;-60
2023/05/12 10:10:22;;;;;;;20.25;17.25;;;19.10;99.90;;;;;;5073010;28;20036;-61
2023/05/12 10:12:48;;;;;;;21.70;18.25;;;19.30;99.90;;;;;;5072976;28;20091;-61
2023/05/12 10:15:16;;;;;;;20.17;16.10;;;19.30;99.90;;;;;;5072260;28;20547;-62
2023/05/12 10:17:43;;;;;;;20.63;16.25;;;19.30;99.90;;;;;;5071715;28;20044;-60
2023/05/12 10:20:10;;;;;;;18.55;15.48;;;19.30;99.90;;;;;;5072103;28;20098;-62
2023/05/12 10:22:39;;;;;;;18.85;15.13;;;19.40;99.90;;;;;;5071942;28;20044;-59
2023/05/12 10:25:09;;;;;;;19.52;16.60;;;19.50;99.90;;;;;;5072218;28;20043;-61
2023/05/12 10:27:36;;;;;;;19.33;15.25;;;19.60;99.90;;;;;;5071572;28;20055;-61
2023/05/12 10:30:03;;;;;;;18.63;14.43;;;19.60;99.90;;;;;;5072216;28;20036;-61
2023/05/12 10:32:29;;;;;;;16.73;14.35;;;19.60;99.90;;;;;;5071921;28;20280;-61
2023/05/12 10:35:05;;;;;;;15.82;13.63;;;19.60;99.90;;;;;;5071339;28;20472;-62
2023/05/12 10:37:34;;;;;;;14.85;10.18;;;19.70;99.90;;;;;;5071625;28;20047;-60
2023/05/12 10:40:02;;;;;;;14.98;11.38;;;19.80;99.90;;;;;;5071635;28;20036;-58
2023/05/12 10:42:39;;;;;;;15.25;12.52;;;19.90;99.90;;;;;;5071169;28;20033;-59
2023/05/12 10:45:16;;;;;;;12.50;9.75;;;20.00;99.90;;;;;;5069476;28;20025;-60
2023/05/12 10:47:43;;;;;;;15.77;11.45;;;20.10;99.90;;;;;;5053308;28;20052;-61
2023/05/12 10:50:12;;;;;;;11.43;9.77;;;20.30;99.90;;;;;;5070091;28;20051;-60
2023/05/12 10:52:39;;;;;;;11.75;9.88;;;20.40;99.90;;;;;;5064171;28;20033;-61
2023/05/12 10:55:10;;;;;;;12.15;8.88;;;20.40;99.90;;;;;;5069794;28;20090;-62
2023/05/12 10:57:47;;;;;;;10.57;7.35;;;20.40;99.90;;;;;;5068417;28;20049;-63
2023/05/12 11:00:13;;;;;;;9.35;8.00;;;20.50;99.90;;;;;;5065237;28;20047;-60
2023/05/12 11:02:48;;;;;;;7.32;5.68;;;20.50;99.90;;;;;;5068582;28;20036;-59
2023/05/12 11:05:14;;;;;;;7.88;6.30;;;20.50;99.90;;;;;;5059622;28;20484;-65
2023/05/12 11:07:48;;;;;;;9.90;6.85;;;20.50;99.90;;;;;;5070515;28;20044;-62
2023/05/12 11:10:14;;;;;;;9.02;7.07;;;20.70;99.90;;;;;;5071303;28;20110;-65
2023/05/12 11:12:42;;;;;;;9.00;6.63;;;21.00;99.90;;;;;;5059349;28;20072;-62
2023/05/12 11:15:08;;;;;;;12.18;7.97;;;21.30;99.90;;;;;;5071028;28;20076;-63
2023/05/12 11:17:39;;;;;;;7.55;5.28;;;21.50;99.90;;;;;;5069923;28;20091;-62
2023/05/12 11:20:06;;;;;;;8.50;5.82;;;21.70;99.90;;;;;;5067766;28;20059;-64
2023/05/12 11:22:32;;;;;;;7.72;4.90;;;21.80;99.90;;;;;;5050102;28;20095;-64
2023/05/12 11:25:07;;;;;;;8.88;4.28;;;21.90;99.90;;;;;;5032603;28;20033;-60
2023/05/12 11:27:33;;;;;;;5.40;4.43;;;22.00;99.90;;;;;;5050966;28;20108;-64
2023/05/12 11:30:01;;;;;;;5.80;4.25;;;21.80;99.90;;;;;;5050432;28;20443;-58
2023/05/12 11:32:28;;;;;;;5.70;4.07;;;21.60;99.90;;;;;;5049895;28;20037;-58
2023/05/12 11:34:54;;;;;;;8.00;4.22;;;21.50;99.90;;;;;;5051069;28;20041;-64
2023/05/12 11:37:20;;;;;;;5.45;4.30;;;21.60;99.90;;;;;;5050919;28;20037;-63
2023/05/12 11:39:46;;;;;;;7.40;5.07;;;21.80;99.90;;;;;;5051255;28;20036;-63
2023/05/12 11:42:12;;;;;;;7.72;5.72;;;22.00;99.90;;;;;;5050687;28;20495;-60
2023/05/12 11:44:48;;;;;;;7.40;5.88;;;22.10;99.90;;;;;;5050459;28;20040;-63
2023/05/12 11:47:19;;;;;;;8.52;6.45;;;22.00;99.90;;;;;;5049500;28;20041;-63
2023/05/12 11:49:47;;;;;;;7.90;5.18;;;22.00;99.90;;;;;;5047912;28;20037;-63
2023/05/12 11:52:13;;;;;;;8.45;5.40;;;21.90;99.90;;;;;;5051039;28;20044;-60
2023/05/12 11:54:38;;;;;;;5.97;4.90;;;21.80;99.90;;;;;;5050582;28;20059;-62
2023/05/12 11:57:04;;;;;;;6.38;5.00;;;21.80;99.90;;;;;;5032328;28;20037;-61
2023/05/12 11:59:34;;;;;;;6.53;4.28;;;21.80;99.90;;;;;;5050271;28;20037;-61
2023/05/12 12:02:02;;;;;;;5.90;4.07;;;21.90;99.90;;;;;;5032330;28;20075;-62
2023/05/12 12:04:31;;;;;;;5.68;4.28;;;22.10;99.90;;;;;;5050185;28;20107;-63
2023/05/12 12:06:57;;;;;;;6.25;4.30;;;22.30;99.90;;;;;;5050414;28;20447;-62
2023/05/12 12:09:37;;;;;;;5.60;4.20;;;22.60;99.90;;;;;;5050350;28;20041;-61
2023/05/12 12:12:04;;;;;;;5.18;3.70;;;22.90;99.90;;;;;;5049979;28;20036;-60
2023/05/12 12:14:30;;;;;;;5.22;3.13;;;23.20;99.90;;;;;;5050287;28;20048;-59
2023/05/12 12:16:56;;;;;;;6.00;3.33;;;23.50;99.90;;;;;;5050349;28;20037;-60
2023/05/12 12:19:22;;;;;;;7.32;4.13;;;23.70;99.90;;;;;;5049773;28;20094;-60
2023/05/12 12:21:47;;;;;;;5.18;3.40;;;23.90;99.90;;;;;;5055178;28;20057;-60
2023/05/12 12:24:13;;;;;;;7.60;3.90;;;24.00;99.90;;;;;;5050280;28;20044;-58
2023/05/12 12:26:39;;;;;;;6.40;3.90;;;24.00;99.90;;;;;;5032025;28;20060;-59
2023/05/12 12:29:05;;;;;;;5.40;3.88;;;24.10;99.90;;;;;;5049636;28;20056;-61